sensor_id;sensor_type;location;lat;lon;timestamp;P1;durP1;ratioP1;P2;durP2;ratioP2
20441;SDS011;10380;52.102;20.614;2023-12-04T00:00:46;25.80;;;13.30;;
20441;SDS011;10380;52.102;20.614;2023-12-04T00:03:14;27.03;;;16.23;;
20441;SDS011;10380;52.102;20.614;2023-12-04T00:05:44;27.77;;;15.03;;
20441;SDS011;10380;52.102;20.614;2023-12-04T00:08:11;27.57;;;16.83;;
20441;SDS011;10380;52.102;20.614;2023-12-04T00:10:38;30.90;;;16.67;;
20441;SDS011;10380;52.102;20.614;2023-12-04T00:13:05;27.03;;;16.00;;
20441;SDS011;10380;52.102;20.614;2023-12-04T00:15:32;27.33;;;16.60;;
20441;SDS011;10380;52.102;20.614;2023-12-04T00:17:59;28.77;;;15.60;;
20441;SDS011;10380;52.102;20.614;2023-12-04T00:20:28;25.63;;;14.70;;
20441;SDS011;10380;52.102;20.614;2023-12-04T00:22:55;24.40;;;15.70;;
20441;SDS011;10380;52.102;20.614;2023-12-04T00:25:23;27.83;;;15.37;;
20441;SDS011;10380;52.102;20.614;2023-12-04T00:27:50;26.80;;;15.97;;
20441;SDS011;10380;52.102;20.614;2023-12-04T00:30:17;22.53;;;14.20;;
20441;SDS011;10380;52.102;20.614;2023-12-04T00:32:44;24.60;;;14.70;;
20441;SDS011;10380;52.102;20.614;2023-12-04T00:35:11;25.27;;;15.30;;
20441;SDS011;10380;52.102;20.614;2023-12-04T00:37:39;24.57;;;14.70;;
20441;SDS011;10380;52.102;20.614;2023-12-04T00:40:08;28.43;;;16.20;;
20441;SDS011;10380;52.102;20.614;2023-12-04T00:42:35;28.30;;;14.97;;
20441;SDS011;10380;52.102;20.614;2023-12-04T00:45:02;26.67;;;15.20;;
20441;SDS011;10380;52.102;20.614;2023-12-04T00:47:30;26.53;;;15.10;;
20441;SDS011;10380;52.102;20.614;2023-12-04T00:49:57;28.37;;;17.13;;
20441;SDS011;10380;52.102;20.614;2023-12-04T00:52:25;21.90;;;15.17;;
20441;SDS011;10380;52.102;20.614;2023-12-04T00:54:52;27.37;;;15.93;;
20441;SDS011;10380;52.102;20.614;2023-12-04T00:57:21;27.87;;;16.87;;
20441;SDS011;10380;52.102;20.614;2023-12-04T00:59:50;16.27;;;10.40;;
20441;SDS011;10380;52.102;20.614;2023-12-04T01:02:17;23.47;;;12.27;;
20441;SDS011;10380;52.102;20.614;2023-12-04T01:04:44;24.20;;;13.83;;
20441;SDS011;10380;52.102;20.614;2023-12-04T01:07:11;26.23;;;15.47;;
20441;SDS011;10380;52.102;20.614;2023-12-04T01:09:38;25.40;;;15.33;;
20441;SDS011;10380;52.102;20.614;2023-12-04T01:12:05;22.57;;;11.73;;
20441;SDS011;10380;52.102;20.614;2023-12-04T01:14:34;22.10;;;12.17;;
20441;SDS011;10380;52.102;20.614;2023-12-04T01:17:04;17.40;;;10.57;;
20441;SDS011;10380;52.102;20.614;2023-12-04T01:19:32;17.93;;;12.67;;
20441;SDS011;10380;52.102;20.614;2023-12-04T01:22:00;12.60;;;8.53;;
20441;SDS011;10380;52.102;20.614;2023-12-04T01:24:27;8.87;;;6.57;;
20441;SDS011;10380;52.102;20.614;2023-12-04T01:26:54;16.40;;;9.00;;
20441;SDS011;10380;52.102;20.614;2023-12-04T01:29:21;16.57;;;10.37;;
20441;SDS011;10380;52.102;20.614;2023-12-04T01:31:48;15.83;;;10.17;;
20441;SDS011;10380;52.102;20.614;2023-12-04T01:34:15;13.83;;;8.50;;
20441;SDS011;10380;52.102;20.614;2023-12-04T01:36:41;17.73;;;11.60;;
20441;SDS011;10380;52.102;20.614;2023-12-04T01:39:08;10.53;;;6.70;;
20441;SDS011;10380;52.102;20.614;2023-12-04T01:41:35;15.27;;;10.83;;
20441;SDS011;10380;52.102;20.614;2023-12-04T01:44:02;16.90;;;10.87;;
20441;SDS011;10380;52.102;20.614;2023-12-04T01:46:30;18.70;;;11.00;;
20441;SDS011;10380;52.102;20.614;2023-12-04T01:48:56;14.70;;;9.93;;
20441;SDS011;10380;52.102;20.614;2023-12-04T01:51:24;16.53;;;11.00;;
20441;SDS011;10380;52.102;20.614;2023-12-04T01:53:53;17.80;;;11.70;;
20441;SDS011;10380;52.102;20.614;2023-12-04T01:56:22;18.17;;;10.53;;
20441;SDS011;10380;52.102;20.614;2023-12-04T01:58:49;18.60;;;10.70;;
20441;SDS011;10380;52.102;20.614;2023-12-04T02:01:16;16.37;;;10.33;;
20441;SDS011;10380;52.102;20.614;2023-12-04T02:03:46;15.20;;;10.60;;
20441;SDS011;10380;52.102;20.614;2023-12-04T02:06:13;15.73;;;11.43;;
20441;SDS011;10380;52.102;20.614;2023-12-04T02:08:41;13.53;;;9.93;;
20441;SDS011;10380;52.102;20.614;2023-12-04T02:11:07;14.37;;;9.37;;
20441;SDS011;10380;52.102;20.614;2023-12-04T02:13:35;13.97;;;9.30;;
20441;SDS011;10380;52.102;20.614;2023-12-04T02:16:03;16.47;;;10.87;;
20441;SDS011;10380;52.102;20.614;2023-12-04T02:18:34;17.67;;;11.50;;
20441;SDS011;10380;52.102;20.614;2023-12-04T02:21:02;13.30;;;7.73;;
20441;SDS011;10380;52.102;20.614;2023-12-04T02:23:29;17.80;;;11.30;;
20441;SDS011;10380;52.102;20.614;2023-12-04T02:26:05;15.03;;;9.63;;
20441;SDS011;10380;52.102;20.614;2023-12-04T02:28:36;15.93;;;10.87;;
20441;SDS011;10380;52.102;20.614;2023-12-04T02:31:04;13.60;;;8.60;;
20441;SDS011;10380;52.102;20.614;2023-12-04T02:33:33;16.33;;;10.13;;
20441;SDS011;10380;52.102;20.614;2023-12-04T02:36:02;15.40;;;10.40;;
20441;SDS011;10380;52.102;20.614;2023-12-04T02:38:31;16.57;;;10.50;;
20441;SDS011;10380;52.102;20.614;2023-12-04T02:40:58;17.43;;;11.07;;
20441;SDS011;10380;52.102;20.614;2023-12-04T02:43:26;15.27;;;10.20;;
20441;SDS011;10380;52.102;20.614;2023-12-04T02:45:58;18.10;;;10.50;;
20441;SDS011;10380;52.102;20.614;2023-12-04T02:48:25;16.90;;;10.93;;
20441;SDS011;10380;52.102;20.614;2023-12-04T02:50:52;17.20;;;11.33;;
20441;SDS011;10380;52.102;20.614;2023-12-04T02:53:19;19.07;;;11.07;;
20441;SDS011;10380;52.102;20.614;2023-12-04T02:55:46;20.07;;;10.83;;
20441;SDS011;10380;52.102;20.614;2023-12-04T02:58:13;16.90;;;11.00;;
20441;SDS011;10380;52.102;20.614;2023-12-04T03:00:40;18.57;;;10.63;;
20441;SDS011;10380;52.102;20.614;2023-12-04T03:03:08;20.43;;;11.33;;
20441;SDS011;10380;52.102;20.614;2023-12-04T03:05:35;20.87;;;12.00;;
20441;SDS011;10380;52.102;20.614;2023-12-04T03:08:02;18.63;;;11.57;;
20441;SDS011;10380;52.102;20.614;2023-12-04T03:10:29;18.13;;;11.53;;
20441;SDS011;10380;52.102;20.614;2023-12-04T03:12:56;19.50;;;10.73;;
20441;SDS011;10380;52.102;20.614;2023-12-04T03:15:23;17.93;;;10.87;;
20441;SDS011;10380;52.102;20.614;2023-12-04T03:17:50;15.87;;;9.83;;
20441;SDS011;10380;52.102;20.614;2023-12-04T03:20:18;18.37;;;11.27;;
20441;SDS011;10380;52.102;20.614;2023-12-04T03:22:45;16.77;;;9.67;;
20441;SDS011;10380;52.102;20.614;2023-12-04T03:25:12;19.33;;;11.23;;
20441;SDS011;10380;52.102;20.614;2023-12-04T03:27:40;16.97;;;10.80;;
20441;SDS011;10380;52.102;20.614;2023-12-04T03:30:09;17.80;;;11.40;;
20441;SDS011;10380;52.102;20.614;2023-12-04T03:32:36;16.17;;;10.30;;
20441;SDS011;10380;52.102;20.614;2023-12-04T03:35:04;19.63;;;10.83;;
20441;SDS011;10380;52.102;20.614;2023-12-04T03:37:31;21.03;;;11.27;;
20441;SDS011;10380;52.102;20.614;2023-12-04T03:39:59;21.50;;;12.13;;
20441;SDS011;10380;52.102;20.614;2023-12-04T03:42:26;21.50;;;12.57;;
20441;SDS011;10380;52.102;20.614;2023-12-04T03:44:53;20.07;;;12.67;;
20441;SDS011;10380;52.102;20.614;2023-12-04T03:47:20;19.20;;;11.63;;
20441;SDS011;10380;52.102;20.614;2023-12-04T03:49:48;20.83;;;13.50;;
20441;SDS011;10380;52.102;20.614;2023-12-04T03:52:15;20.30;;;11.67;;
20441;SDS011;10380;52.102;20.614;2023-12-04T03:54:42;19.20;;;12.83;;
20441;SDS011;10380;52.102;20.614;2023-12-04T03:57:11;21.77;;;13.27;;
20441;SDS011;10380;52.102;20.614;2023-12-04T03:59:37;24.10;;;12.83;;
20441;SDS011;10380;52.102;20.614;2023-12-04T04:02:04;22.70;;;12.47;;
20441;SDS011;10380;52.102;20.614;2023-12-04T04:04:32;23.87;;;13.63;;
20441;SDS011;10380;52.102;20.614;2023-12-04T04:06:59;19.57;;;12.43;;
20441;SDS011;10380;52.102;20.614;2023-12-04T04:09:27;20.23;;;12.87;;
20441;SDS011;10380;52.102;20.614;2023-12-04T04:11:55;24.30;;;14.63;;
20441;SDS011;10380;52.102;20.614;2023-12-04T04:14:22;22.73;;;13.23;;
20441;SDS011;10380;52.102;20.614;2023-12-04T04:16:50;20.20;;;12.80;;
20441;SDS011;10380;52.102;20.614;2023-12-04T04:19:18;18.70;;;12.27;;
20441;SDS011;10380;52.102;20.614;2023-12-04T04:21:45;19.47;;;12.13;;
20441;SDS011;10380;52.102;20.614;2023-12-04T04:24:14;21.63;;;14.10;;
20441;SDS011;10380;52.102;20.614;2023-12-04T04:26:41;23.00;;;13.73;;
20441;SDS011;10380;52.102;20.614;2023-12-04T04:29:08;24.53;;;14.17;;
20441;SDS011;10380;52.102;20.614;2023-12-04T04:31:38;23.47;;;13.10;;
20441;SDS011;10380;52.102;20.614;2023-12-04T04:34:04;25.93;;;14.67;;
20441;SDS011;10380;52.102;20.614;2023-12-04T04:36:31;30.23;;;15.87;;
20441;SDS011;10380;52.102;20.614;2023-12-04T04:38:58;28.77;;;16.57;;
20441;SDS011;10380;52.102;20.614;2023-12-04T04:41:25;26.60;;;14.30;;
20441;SDS011;10380;52.102;20.614;2023-12-04T04:43:52;25.87;;;14.47;;
20441;SDS011;10380;52.102;20.614;2023-12-04T04:46:19;21.70;;;13.47;;
20441;SDS011;10380;52.102;20.614;2023-12-04T04:48:47;30.67;;;16.23;;
20441;SDS011;10380;52.102;20.614;2023-12-04T04:51:14;28.40;;;14.80;;
20441;SDS011;10380;52.102;20.614;2023-12-04T04:53:41;31.93;;;16.27;;
20441;SDS011;10380;52.102;20.614;2023-12-04T04:56:08;29.30;;;16.20;;
20441;SDS011;10380;52.102;20.614;2023-12-04T04:58:36;26.77;;;14.20;;
20441;SDS011;10380;52.102;20.614;2023-12-04T05:01:04;18.37;;;10.90;;
20441;SDS011;10380;52.102;20.614;2023-12-04T05:03:31;25.07;;;14.77;;
20441;SDS011;10380;52.102;20.614;2023-12-04T05:05:58;26.40;;;14.77;;
20441;SDS011;10380;52.102;20.614;2023-12-04T05:08:25;24.80;;;14.73;;
20441;SDS011;10380;52.102;20.614;2023-12-04T05:10:52;22.83;;;13.27;;
20441;SDS011;10380;52.102;20.614;2023-12-04T05:13:21;25.10;;;14.63;;
20441;SDS011;10380;52.102;20.614;2023-12-04T05:15:48;22.40;;;14.23;;
20441;SDS011;10380;52.102;20.614;2023-12-04T05:18:15;26.10;;;15.33;;
20441;SDS011;10380;52.102;20.614;2023-12-04T05:20:42;21.50;;;13.60;;
20441;SDS011;10380;52.102;20.614;2023-12-04T05:23:09;28.90;;;16.97;;
20441;SDS011;10380;52.102;20.614;2023-12-04T05:25:37;23.63;;;14.93;;
20441;SDS011;10380;52.102;20.614;2023-12-04T05:28:13;26.30;;;16.03;;
20441;SDS011;10380;52.102;20.614;2023-12-04T05:30:40;24.37;;;15.27;;
20441;SDS011;10380;52.102;20.614;2023-12-04T05:33:07;24.97;;;15.07;;
20441;SDS011;10380;52.102;20.614;2023-12-04T05:35:35;22.53;;;14.50;;
20441;SDS011;10380;52.102;20.614;2023-12-04T05:38:03;25.17;;;15.77;;
20441;SDS011;10380;52.102;20.614;2023-12-04T05:40:31;23.10;;;14.43;;
20441;SDS011;10380;52.102;20.614;2023-12-04T05:42:58;30.17;;;16.20;;
20441;SDS011;10380;52.102;20.614;2023-12-04T05:45:25;28.07;;;16.03;;
20441;SDS011;10380;52.102;20.614;2023-12-04T05:47:52;28.23;;;16.17;;
20441;SDS011;10380;52.102;20.614;2023-12-04T05:50:19;28.50;;;16.23;;
20441;SDS011;10380;52.102;20.614;2023-12-04T05:52:46;25.90;;;15.57;;
20441;SDS011;10380;52.102;20.614;2023-12-04T05:55:13;28.83;;;16.23;;
20441;SDS011;10380;52.102;20.614;2023-12-04T05:57:40;26.60;;;15.27;;
20441;SDS011;10380;52.102;20.614;2023-12-04T06:00:07;25.03;;;15.77;;
20441;SDS011;10380;52.102;20.614;2023-12-04T06:02:39;29.63;;;16.73;;
20441;SDS011;10380;52.102;20.614;2023-12-04T06:05:07;26.10;;;16.13;;
20441;SDS011;10380;52.102;20.614;2023-12-04T06:07:35;27.03;;;15.20;;
20441;SDS011;10380;52.102;20.614;2023-12-04T06:10:02;26.10;;;16.37;;
20441;SDS011;10380;52.102;20.614;2023-12-04T06:12:33;27.23;;;15.80;;
20441;SDS011;10380;52.102;20.614;2023-12-04T06:15:00;24.60;;;15.33;;
20441;SDS011;10380;52.102;20.614;2023-12-04T06:17:27;29.03;;;15.63;;
20441;SDS011;10380;52.102;20.614;2023-12-04T06:19:54;30.30;;;16.40;;
20441;SDS011;10380;52.102;20.614;2023-12-04T06:22:21;31.60;;;18.13;;
20441;SDS011;10380;52.102;20.614;2023-12-04T06:24:48;26.87;;;16.57;;
20441;SDS011;10380;52.102;20.614;2023-12-04T06:27:17;26.13;;;16.53;;
20441;SDS011;10380;52.102;20.614;2023-12-04T06:29:48;26.50;;;14.93;;
20441;SDS011;10380;52.102;20.614;2023-12-04T06:32:18;31.43;;;17.07;;
20441;SDS011;10380;52.102;20.614;2023-12-04T06:34:46;30.87;;;17.27;;
20441;SDS011;10380;52.102;20.614;2023-12-04T06:37:13;28.37;;;16.50;;
20441;SDS011;10380;52.102;20.614;2023-12-04T06:39:41;32.50;;;17.27;;
20441;SDS011;10380;52.102;20.614;2023-12-04T06:42:11;31.97;;;17.83;;
20441;SDS011;10380;52.102;20.614;2023-12-04T06:44:39;27.00;;;16.60;;
20441;SDS011;10380;52.102;20.614;2023-12-04T06:47:07;32.30;;;18.07;;
20441;SDS011;10380;52.102;20.614;2023-12-04T06:49:35;33.60;;;17.33;;
20441;SDS011;10380;52.102;20.614;2023-12-04T06:52:02;31.63;;;15.53;;
20441;SDS011;10380;52.102;20.614;2023-12-04T06:54:30;26.80;;;16.43;;
20441;SDS011;10380;52.102;20.614;2023-12-04T06:56:57;30.87;;;15.00;;
20441;SDS011;10380;52.102;20.614;2023-12-04T06:59:24;27.50;;;15.90;;
20441;SDS011;10380;52.102;20.614;2023-12-04T07:01:51;30.50;;;16.20;;
20441;SDS011;10380;52.102;20.614;2023-12-04T07:04:18;30.37;;;16.83;;
20441;SDS011;10380;52.102;20.614;2023-12-04T07:06:48;28.00;;;16.20;;
20441;SDS011;10380;52.102;20.614;2023-12-04T07:09:15;30.37;;;16.37;;
20441;SDS011;10380;52.102;20.614;2023-12-04T07:11:46;28.20;;;16.20;;
20441;SDS011;10380;52.102;20.614;2023-12-04T07:14:13;35.70;;;18.33;;
20441;SDS011;10380;52.102;20.614;2023-12-04T07:16:43;29.70;;;16.20;;
20441;SDS011;10380;52.102;20.614;2023-12-04T07:19:10;27.67;;;14.73;;
20441;SDS011;10380;52.102;20.614;2023-12-04T07:21:38;28.50;;;15.67;;
20441;SDS011;10380;52.102;20.614;2023-12-04T07:24:05;29.10;;;15.70;;
20441;SDS011;10380;52.102;20.614;2023-12-04T07:26:34;32.50;;;16.70;;
20441;SDS011;10380;52.102;20.614;2023-12-04T07:29:02;31.53;;;17.27;;
20441;SDS011;10380;52.102;20.614;2023-12-04T07:31:30;34.33;;;17.73;;
20441;SDS011;10380;52.102;20.614;2023-12-04T07:33:57;30.80;;;17.20;;
20441;SDS011;10380;52.102;20.614;2023-12-04T07:36:27;34.70;;;17.30;;
20441;SDS011;10380;52.102;20.614;2023-12-04T07:38:54;31.70;;;17.57;;
20441;SDS011;10380;52.102;20.614;2023-12-04T07:41:21;33.00;;;16.00;;
20441;SDS011;10380;52.102;20.614;2023-12-04T07:43:48;28.87;;;16.43;;
20441;SDS011;10380;52.102;20.614;2023-12-04T07:46:15;31.03;;;17.47;;
20441;SDS011;10380;52.102;20.614;2023-12-04T07:48:42;32.13;;;17.47;;
20441;SDS011;10380;52.102;20.614;2023-12-04T07:51:12;27.90;;;15.53;;
20441;SDS011;10380;52.102;20.614;2023-12-04T07:53:39;34.20;;;16.10;;
20441;SDS011;10380;52.102;20.614;2023-12-04T07:56:07;25.97;;;15.40;;
20441;SDS011;10380;52.102;20.614;2023-12-04T07:58:34;24.97;;;14.83;;
20441;SDS011;10380;52.102;20.614;2023-12-04T08:01:01;30.03;;;15.93;;
20441;SDS011;10380;52.102;20.614;2023-12-04T08:03:28;30.53;;;16.77;;
20441;SDS011;10380;52.102;20.614;2023-12-04T08:05:55;28.13;;;15.47;;
20441;SDS011;10380;52.102;20.614;2023-12-04T08:08:22;26.97;;;15.30;;
20441;SDS011;10380;52.102;20.614;2023-12-04T08:10:49;32.70;;;17.87;;
20441;SDS011;10380;52.102;20.614;2023-12-04T08:13:16;37.73;;;16.83;;
20441;SDS011;10380;52.102;20.614;2023-12-04T08:15:43;31.93;;;16.33;;
20441;SDS011;10380;52.102;20.614;2023-12-04T08:18:11;30.70;;;16.43;;
20441;SDS011;10380;52.102;20.614;2023-12-04T08:20:37;37.77;;;17.33;;
20441;SDS011;10380;52.102;20.614;2023-12-04T08:23:06;33.97;;;16.33;;
20441;SDS011;10380;52.102;20.614;2023-12-04T08:25:34;38.33;;;17.07;;
20441;SDS011;10380;52.102;20.614;2023-12-04T08:28:05;31.83;;;17.67;;
20441;SDS011;10380;52.102;20.614;2023-12-04T08:30:32;33.60;;;16.30;;
20441;SDS011;10380;52.102;20.614;2023-12-04T08:32:59;36.17;;;18.53;;
20441;SDS011;10380;52.102;20.614;2023-12-04T08:35:26;27.30;;;17.03;;
20441;SDS011;10380;52.102;20.614;2023-12-04T08:37:53;32.73;;;17.13;;
20441;SDS011;10380;52.102;20.614;2023-12-04T08:40:21;33.03;;;16.83;;
20441;SDS011;10380;52.102;20.614;2023-12-04T08:42:48;30.73;;;15.73;;
20441;SDS011;10380;52.102;20.614;2023-12-04T08:45:15;36.63;;;17.63;;
20441;SDS011;10380;52.102;20.614;2023-12-04T08:47:45;30.70;;;16.33;;
20441;SDS011;10380;52.102;20.614;2023-12-04T08:50:12;33.40;;;16.50;;
20441;SDS011;10380;52.102;20.614;2023-12-04T08:52:39;33.63;;;17.67;;
20441;SDS011;10380;52.102;20.614;2023-12-04T08:55:08;29.37;;;16.70;;
20441;SDS011;10380;52.102;20.614;2023-12-04T08:57:36;35.63;;;17.87;;
20441;SDS011;10380;52.102;20.614;2023-12-04T09:00:04;36.53;;;18.80;;
20441;SDS011;10380;52.102;20.614;2023-12-04T09:02:31;41.53;;;19.17;;
20441;SDS011;10380;52.102;20.614;2023-12-04T09:04:59;30.70;;;16.07;;
20441;SDS011;10380;52.102;20.614;2023-12-04T09:07:26;29.73;;;16.80;;
20441;SDS011;10380;52.102;20.614;2023-12-04T09:10:13;30.60;;;16.17;;
20441;SDS011;10380;52.102;20.614;2023-12-04T09:13:00;36.67;;;17.43;;
20441;SDS011;10380;52.102;20.614;2023-12-04T09:15:27;35.73;;;18.70;;
20441;SDS011;10380;52.102;20.614;2023-12-04T09:17:55;36.67;;;19.17;;
20441;SDS011;10380;52.102;20.614;2023-12-04T09:20:22;35.53;;;18.10;;
20441;SDS011;10380;52.102;20.614;2023-12-04T09:22:49;39.17;;;17.60;;
20441;SDS011;10380;52.102;20.614;2023-12-04T09:25:22;39.07;;;20.70;;
20441;SDS011;10380;52.102;20.614;2023-12-04T09:27:49;45.47;;;22.40;;
20441;SDS011;10380;52.102;20.614;2023-12-04T09:30:16;42.73;;;23.53;;
20441;SDS011;10380;52.102;20.614;2023-12-04T09:32:44;39.47;;;21.27;;
20441;SDS011;10380;52.102;20.614;2023-12-04T09:35:11;37.80;;;20.63;;
20441;SDS011;10380;52.102;20.614;2023-12-04T09:37:38;38.10;;;18.97;;
20441;SDS011;10380;52.102;20.614;2023-12-04T09:40:05;36.50;;;19.90;;
20441;SDS011;10380;52.102;20.614;2023-12-04T09:42:34;49.43;;;22.13;;
20441;SDS011;10380;52.102;20.614;2023-12-04T09:45:02;33.97;;;18.23;;
20441;SDS011;10380;52.102;20.614;2023-12-04T09:47:29;30.60;;;17.70;;
20441;SDS011;10380;52.102;20.614;2023-12-04T09:49:58;36.27;;;17.80;;
20441;SDS011;10380;52.102;20.614;2023-12-04T09:52:27;32.10;;;17.53;;
20441;SDS011;10380;52.102;20.614;2023-12-04T09:54:55;36.47;;;18.53;;
20441;SDS011;10380;52.102;20.614;2023-12-04T09:57:23;35.37;;;19.23;;
20441;SDS011;10380;52.102;20.614;2023-12-04T09:59:51;32.40;;;17.60;;
20441;SDS011;10380;52.102;20.614;2023-12-04T10:02:19;38.83;;;21.30;;
20441;SDS011;10380;52.102;20.614;2023-12-04T10:04:48;36.47;;;18.47;;
20441;SDS011;10380;52.102;20.614;2023-12-04T10:07:15;42.80;;;21.67;;
20441;SDS011;10380;52.102;20.614;2023-12-04T10:09:42;37.57;;;19.50;;
20441;SDS011;10380;52.102;20.614;2023-12-04T10:12:09;30.80;;;18.73;;
20441;SDS011;10380;52.102;20.614;2023-12-04T10:14:37;35.83;;;20.13;;
20441;SDS011;10380;52.102;20.614;2023-12-04T10:17:13;37.20;;;19.87;;
20441;SDS011;10380;52.102;20.614;2023-12-04T10:19:43;36.93;;;19.23;;
20441;SDS011;10380;52.102;20.614;2023-12-04T10:22:11;35.40;;;19.30;;
20441;SDS011;10380;52.102;20.614;2023-12-04T10:24:39;36.33;;;19.63;;
20441;SDS011;10380;52.102;20.614;2023-12-04T10:27:08;30.33;;;18.60;;
20441;SDS011;10380;52.102;20.614;2023-12-04T10:29:47;35.87;;;19.67;;
20441;SDS011;10380;52.102;20.614;2023-12-04T10:32:18;40.63;;;19.77;;
20441;SDS011;10380;52.102;20.614;2023-12-04T10:34:48;34.40;;;18.67;;
20441;SDS011;10380;52.102;20.614;2023-12-04T10:37:16;35.60;;;17.87;;
20441;SDS011;10380;52.102;20.614;2023-12-04T10:39:47;33.27;;;18.30;;
20441;SDS011;10380;52.102;20.614;2023-12-04T10:42:28;32.30;;;18.20;;
20441;SDS011;10380;52.102;20.614;2023-12-04T10:44:57;37.67;;;19.60;;
20441;SDS011;10380;52.102;20.614;2023-12-04T10:47:25;34.30;;;18.07;;
20441;SDS011;10380;52.102;20.614;2023-12-04T10:49:59;34.80;;;17.47;;
20441;SDS011;10380;52.102;20.614;2023-12-04T10:52:28;35.10;;;20.97;;
20441;SDS011;10380;52.102;20.614;2023-12-04T10:54:56;39.73;;;20.20;;
20441;SDS011;10380;52.102;20.614;2023-12-04T10:57:31;39.07;;;20.83;;
20441;SDS011;10380;52.102;20.614;2023-12-04T11:00:04;43.47;;;22.97;;
20441;SDS011;10380;52.102;20.614;2023-12-04T11:02:33;47.43;;;24.30;;
20441;SDS011;10380;52.102;20.614;2023-12-04T11:05:03;46.70;;;23.53;;
20441;SDS011;10380;52.102;20.614;2023-12-04T11:07:56;39.30;;;19.80;;
20441;SDS011;10380;52.102;20.614;2023-12-04T11:10:48;41.40;;;20.87;;
20441;SDS011;10380;52.102;20.614;2023-12-04T11:13:22;42.43;;;21.70;;
20441;SDS011;10380;52.102;20.614;2023-12-04T11:15:54;45.93;;;22.00;;
20441;SDS011;10380;52.102;20.614;2023-12-04T11:18:25;45.97;;;22.47;;
20441;SDS011;10380;52.102;20.614;2023-12-04T11:20:59;42.50;;;24.83;;
20441;SDS011;10380;52.102;20.614;2023-12-04T11:23:33;44.73;;;23.57;;
20441;SDS011;10380;52.102;20.614;2023-12-04T11:26:05;42.57;;;22.43;;
20441;SDS011;10380;52.102;20.614;2023-12-04T11:28:33;36.37;;;21.20;;
20441;SDS011;10380;52.102;20.614;2023-12-04T11:31:05;37.50;;;19.63;;
20441;SDS011;10380;52.102;20.614;2023-12-04T11:33:36;36.13;;;18.87;;
20441;SDS011;10380;52.102;20.614;2023-12-04T11:36:11;32.07;;;17.43;;
20441;SDS011;10380;52.102;20.614;2023-12-04T11:38:43;33.90;;;18.47;;
20441;SDS011;10380;52.102;20.614;2023-12-04T11:41:16;37.10;;;18.80;;
20441;SDS011;10380;52.102;20.614;2023-12-04T11:43:54;33.10;;;17.77;;
20441;SDS011;10380;52.102;20.614;2023-12-04T11:46:25;28.70;;;16.57;;
20441;SDS011;10380;52.102;20.614;2023-12-04T11:48:56;32.63;;;17.90;;
20441;SDS011;10380;52.102;20.614;2023-12-04T11:51:45;33.60;;;17.87;;
20441;SDS011;10380;52.102;20.614;2023-12-04T11:54:15;44.70;;;24.03;;
20441;SDS011;10380;52.102;20.614;2023-12-04T11:59:38;31.80;;;18.13;;
20441;SDS011;10380;52.102;20.614;2023-12-04T12:02:09;35.97;;;19.13;;
20441;SDS011;10380;52.102;20.614;2023-12-04T12:04:37;38.23;;;20.27;;
20441;SDS011;10380;52.102;20.614;2023-12-04T12:07:05;34.47;;;17.93;;
20441;SDS011;10380;52.102;20.614;2023-12-04T12:09:33;34.27;;;18.20;;
20441;SDS011;10380;52.102;20.614;2023-12-04T12:12:01;36.67;;;18.20;;
20441;SDS011;10380;52.102;20.614;2023-12-04T12:14:29;30.93;;;17.53;;
20441;SDS011;10380;52.102;20.614;2023-12-04T12:17:00;38.43;;;20.60;;
20441;SDS011;10380;52.102;20.614;2023-12-04T12:19:28;36.40;;;20.70;;
20441;SDS011;10380;52.102;20.614;2023-12-04T12:21:55;37.53;;;20.90;;
20441;SDS011;10380;52.102;20.614;2023-12-04T12:24:23;42.23;;;23.83;;
20441;SDS011;10380;52.102;20.614;2023-12-04T12:26:51;42.30;;;22.23;;
20441;SDS011;10380;52.102;20.614;2023-12-04T12:29:18;37.83;;;20.43;;
20441;SDS011;10380;52.102;20.614;2023-12-04T12:31:45;37.43;;;19.37;;
20441;SDS011;10380;52.102;20.614;2023-12-04T12:34:13;38.70;;;20.50;;
20441;SDS011;10380;52.102;20.614;2023-12-04T12:36:41;35.43;;;19.63;;
20441;SDS011;10380;52.102;20.614;2023-12-04T12:39:08;38.07;;;21.73;;
20441;SDS011;10380;52.102;20.614;2023-12-04T12:41:35;36.97;;;20.47;;
20441;SDS011;10380;52.102;20.614;2023-12-04T12:44:02;41.93;;;22.87;;
20441;SDS011;10380;52.102;20.614;2023-12-04T12:46:29;37.63;;;23.47;;
20441;SDS011;10380;52.102;20.614;2023-12-04T12:48:56;38.93;;;23.23;;
20441;SDS011;10380;52.102;20.614;2023-12-04T12:51:25;33.87;;;19.70;;
20441;SDS011;10380;52.102;20.614;2023-12-04T12:53:52;42.23;;;21.33;;
20441;SDS011;10380;52.102;20.614;2023-12-04T12:56:19;34.70;;;20.47;;
20441;SDS011;10380;52.102;20.614;2023-12-04T12:58:47;39.00;;;19.00;;
20441;SDS011;10380;52.102;20.614;2023-12-04T13:01:14;35.83;;;19.57;;
20441;SDS011;10380;52.102;20.614;2023-12-04T13:03:45;35.30;;;20.07;;
20441;SDS011;10380;52.102;20.614;2023-12-04T13:06:13;35.23;;;19.60;;
20441;SDS011;10380;52.102;20.614;2023-12-04T13:08:40;31.73;;;18.63;;
20441;SDS011;10380;52.102;20.614;2023-12-04T13:11:07;40.53;;;21.37;;
20441;SDS011;10380;52.102;20.614;2023-12-04T13:13:35;37.53;;;20.20;;
20441;SDS011;10380;52.102;20.614;2023-12-04T13:16:03;37.07;;;20.73;;
20441;SDS011;10380;52.102;20.614;2023-12-04T13:18:30;34.60;;;19.87;;
20441;SDS011;10380;52.102;20.614;2023-12-04T13:21:01;37.73;;;21.83;;
20441;SDS011;10380;52.102;20.614;2023-12-04T13:23:28;32.90;;;21.57;;
20441;SDS011;10380;52.102;20.614;2023-12-04T13:25:55;36.27;;;19.77;;
20441;SDS011;10380;52.102;20.614;2023-12-04T13:28:22;36.57;;;20.40;;
20441;SDS011;10380;52.102;20.614;2023-12-04T13:31:01;36.80;;;21.67;;
20441;SDS011;10380;52.102;20.614;2023-12-04T13:33:29;43.97;;;24.27;;
20441;SDS011;10380;52.102;20.614;2023-12-04T13:35:56;38.83;;;21.77;;
20441;SDS011;10380;52.102;20.614;2023-12-04T13:38:23;36.20;;;18.90;;
20441;SDS011;10380;52.102;20.614;2023-12-04T13:41:00;34.87;;;18.13;;
20441;SDS011;10380;52.102;20.614;2023-12-04T13:43:35;33.63;;;19.87;;
20441;SDS011;10380;52.102;20.614;2023-12-04T13:46:17;33.63;;;18.27;;
20441;SDS011;10380;52.102;20.614;2023-12-04T13:48:44;30.27;;;18.13;;
20441;SDS011;10380;52.102;20.614;2023-12-04T13:51:11;31.30;;;19.00;;
20441;SDS011;10380;52.102;20.614;2023-12-04T13:53:39;34.43;;;19.57;;
20441;SDS011;10380;52.102;20.614;2023-12-04T13:56:11;38.10;;;20.27;;
20441;SDS011;10380;52.102;20.614;2023-12-04T13:58:47;36.60;;;20.47;;
20441;SDS011;10380;52.102;20.614;2023-12-04T14:01:21;36.60;;;20.43;;
20441;SDS011;10380;52.102;20.614;2023-12-04T14:03:56;37.20;;;20.50;;
20441;SDS011;10380;52.102;20.614;2023-12-04T14:06:28;37.27;;;18.97;;
20441;SDS011;10380;52.102;20.614;2023-12-04T14:08:56;35.83;;;19.73;;
20441;SDS011;10380;52.102;20.614;2023-12-04T14:11:25;34.63;;;19.77;;
20441;SDS011;10380;52.102;20.614;2023-12-04T14:13:52;34.40;;;18.27;;
20441;SDS011;10380;52.102;20.614;2023-12-04T14:16:19;31.13;;;17.73;;
20441;SDS011;10380;52.102;20.614;2023-12-04T14:18:46;30.97;;;17.97;;